sensor_id;sensor_type;location;lat;lon;timestamp;P1;durP1;ratioP1;P2;durP2;ratioP2
22223;SDS011;11281;52.194;21.006;2022-09-21T00:00:18;8.05;;;5.85;;
22223;SDS011;11281;52.194;21.006;2022-09-21T00:04:40;7.93;;;6.82;;
22223;SDS011;11281;52.194;21.006;2022-09-21T00:09:02;10.27;;;7.40;;
22223;SDS011;11281;52.194;21.006;2022-09-21T00:13:25;7.80;;;6.15;;
22223;SDS011;11281;52.194;21.006;2022-09-21T00:17:50;8.30;;;6.25;;
22223;SDS011;11281;52.194;21.006;2022-09-21T00:22:14;6.93;;;5.30;;
22223;SDS011;11281;52.194;21.006;2022-09-21T00:26:36;7.63;;;5.78;;
22223;SDS011;11281;52.194;21.006;2022-09-21T00:31:04;9.48;;;6.10;;
22223;SDS011;11281;52.194;21.006;2022-09-21T00:35:32;10.82;;;6.63;;
22223;SDS011;11281;52.194;21.006;2022-09-21T00:39:54;9.57;;;5.85;;
22223;SDS011;11281;52.194;21.006;2022-09-21T00:48:49;8.15;;;6.00;;
22223;SDS011;11281;52.194;21.006;2022-09-21T00:53:11;9.30;;;5.85;;
22223;SDS011;11281;52.194;21.006;2022-09-21T00:57:34;8.07;;;5.60;;
22223;SDS011;11281;52.194;21.006;2022-09-21T01:01:57;8.82;;;6.40;;
22223;SDS011;11281;52.194;21.006;2022-09-21T01:06:19;7.43;;;5.60;;
22223;SDS011;11281;52.194;21.006;2022-09-21T01:10:56;9.77;;;5.28;;
22223;SDS011;11281;52.194;21.006;2022-09-21T01:16:05;8.82;;;6.10;;
22223;SDS011;11281;52.194;21.006;2022-09-21T01:25:58;6.35;;;5.13;;
22223;SDS011;11281;52.194;21.006;2022-09-21T01:30:32;7.55;;;6.32;;
22223;SDS011;11281;52.194;21.006;2022-09-21T01:34:58;6.28;;;5.53;;
22223;SDS011;11281;52.194;21.006;2022-09-21T01:39:33;9.68;;;5.97;;
22223;SDS011;11281;52.194;21.006;2022-09-21T01:44:00;12.32;;;5.90;;
22223;SDS011;11281;52.194;21.006;2022-09-21T01:48:31;7.57;;;5.70;;
22223;SDS011;11281;52.194;21.006;2022-09-21T01:53:06;8.40;;;6.00;;
22223;SDS011;11281;52.194;21.006;2022-09-21T02:02:25;9.85;;;6.13;;
22223;SDS011;11281;52.194;21.006;2022-09-21T02:06:58;7.95;;;5.57;;
22223;SDS011;11281;52.194;21.006;2022-09-21T02:11:20;10.15;;;6.30;;
22223;SDS011;11281;52.194;21.006;2022-09-21T02:20:27;11.05;;;5.97;;
22223;SDS011;11281;52.194;21.006;2022-09-21T02:25:01;7.57;;;5.68;;
22223;SDS011;11281;52.194;21.006;2022-09-21T02:29:40;7.00;;;5.95;;
22223;SDS011;11281;52.194;21.006;2022-09-21T02:39:11;9.52;;;6.40;;
22223;SDS011;11281;52.194;21.006;2022-09-21T02:44:05;9.93;;;6.20;;
22223;SDS011;11281;52.194;21.006;2022-09-21T02:48:34;8.30;;;5.38;;
22223;SDS011;11281;52.194;21.006;2022-09-21T02:53:07;7.97;;;6.10;;
22223;SDS011;11281;52.194;21.006;2022-09-21T02:57:31;6.60;;;5.50;;
22223;SDS011;11281;52.194;21.006;2022-09-21T03:01:53;7.35;;;6.07;;
22223;SDS011;11281;52.194;21.006;2022-09-21T03:06:18;7.18;;;5.32;;
22223;SDS011;11281;52.194;21.006;2022-09-21T03:10:40;7.50;;;5.82;;
22223;SDS011;11281;52.194;21.006;2022-09-21T03:15:02;6.38;;;5.40;;
22223;SDS011;11281;52.194;21.006;2022-09-21T03:19:25;7.35;;;5.43;;
22223;SDS011;11281;52.194;21.006;2022-09-21T03:23:48;8.82;;;6.47;;
22223;SDS011;11281;52.194;21.006;2022-09-21T03:28:10;6.00;;;5.40;;
22223;SDS011;11281;52.194;21.006;2022-09-21T03:32:33;6.55;;;5.28;;
22223;SDS011;11281;52.194;21.006;2022-09-21T03:36:55;10.75;;;6.78;;
22223;SDS011;11281;52.194;21.006;2022-09-21T03:41:17;6.15;;;5.55;;
22223;SDS011;11281;52.194;21.006;2022-09-21T03:45:39;6.75;;;5.38;;
22223;SDS011;11281;52.194;21.006;2022-09-21T03:50:02;7.55;;;5.72;;
22223;SDS011;11281;52.194;21.006;2022-09-21T03:54:25;9.23;;;5.50;;
22223;SDS011;11281;52.194;21.006;2022-09-21T03:58:46;8.43;;;5.55;;
22223;SDS011;11281;52.194;21.006;2022-09-21T04:03:08;7.70;;;5.32;;
22223;SDS011;11281;52.194;21.006;2022-09-21T04:07:30;5.50;;;4.55;;
22223;SDS011;11281;52.194;21.006;2022-09-21T04:11:54;6.50;;;4.82;;
22223;SDS011;11281;52.194;21.006;2022-09-21T04:16:16;4.57;;;4.10;;
22223;SDS011;11281;52.194;21.006;2022-09-21T04:20:38;4.47;;;3.72;;
22223;SDS011;11281;52.194;21.006;2022-09-21T04:24:59;4.18;;;3.35;;
22223;SDS011;11281;52.194;21.006;2022-09-21T04:29:21;4.07;;;3.22;;
22223;SDS011;11281;52.194;21.006;2022-09-21T04:33:43;3.45;;;3.10;;
22223;SDS011;11281;52.194;21.006;2022-09-21T04:38:08;3.65;;;3.10;;
22223;SDS011;11281;52.194;21.006;2022-09-21T04:42:30;5.40;;;3.28;;
22223;SDS011;11281;52.194;21.006;2022-09-21T04:46:52;3.90;;;3.60;;
22223;SDS011;11281;52.194;21.006;2022-09-21T04:51:14;4.70;;;3.58;;
22223;SDS011;11281;52.194;21.006;2022-09-21T04:55:37;4.15;;;3.75;;
22223;SDS011;11281;52.194;21.006;2022-09-21T04:59:59;5.22;;;4.00;;
22223;SDS011;11281;52.194;21.006;2022-09-21T05:04:22;4.40;;;3.88;;
22223;SDS011;11281;52.194;21.006;2022-09-21T05:08:43;4.32;;;3.47;;
22223;SDS011;11281;52.194;21.006;2022-09-21T05:13:23;4.75;;;3.65;;
22223;SDS011;11281;52.194;21.006;2022-09-21T05:17:45;4.72;;;3.42;;
22223;SDS011;11281;52.194;21.006;2022-09-21T05:22:07;4.07;;;3.42;;
22223;SDS011;11281;52.194;21.006;2022-09-21T05:26:29;5.00;;;3.83;;
22223;SDS011;11281;52.194;21.006;2022-09-21T05:30:53;5.75;;;3.38;;
22223;SDS011;11281;52.194;21.006;2022-09-21T05:35:34;4.25;;;3.33;;
22223;SDS011;11281;52.194;21.006;2022-09-21T05:40:14;3.60;;;3.17;;
22223;SDS011;11281;52.194;21.006;2022-09-21T05:44:36;4.70;;;3.35;;
22223;SDS011;11281;52.194;21.006;2022-09-21T05:48:59;6.70;;;3.60;;
22223;SDS011;11281;52.194;21.006;2022-09-21T05:59:05;5.82;;;3.40;;
22223;SDS011;11281;52.194;21.006;2022-09-21T06:03:47;5.22;;;2.70;;
22223;SDS011;11281;52.194;21.006;2022-09-21T06:08:10;4.00;;;2.97;;
22223;SDS011;11281;52.194;21.006;2022-09-21T06:12:31;4.82;;;3.80;;
22223;SDS011;11281;52.194;21.006;2022-09-21T06:16:53;3.55;;;3.25;;
22223;SDS011;11281;52.194;21.006;2022-09-21T06:21:15;3.97;;;2.47;;
22223;SDS011;11281;52.194;21.006;2022-09-21T06:25:37;8.45;;;2.80;;
22223;SDS011;11281;52.194;21.006;2022-09-21T06:29:59;5.53;;;2.28;;
22223;SDS011;11281;52.194;21.006;2022-09-21T06:34:21;4.55;;;2.13;;
22223;SDS011;11281;52.194;21.006;2022-09-21T06:38:42;3.17;;;2.17;;
22223;SDS011;11281;52.194;21.006;2022-09-21T06:43:04;2.75;;;2.15;;
22223;SDS011;11281;52.194;21.006;2022-09-21T06:47:26;2.10;;;1.88;;
22223;SDS011;11281;52.194;21.006;2022-09-21T06:51:48;2.03;;;1.55;;
22223;SDS011;11281;52.194;21.006;2022-09-21T06:56:09;4.43;;;1.90;;
22223;SDS011;11281;52.194;21.006;2022-09-21T07:00:32;2.65;;;1.50;;
22223;SDS011;11281;52.194;21.006;2022-09-21T07:04:53;4.07;;;1.63;;
22223;SDS011;11281;52.194;21.006;2022-09-21T07:09:15;1.83;;;1.73;;
22223;SDS011;11281;52.194;21.006;2022-09-21T07:13:37;1.70;;;1.60;;
22223;SDS011;11281;52.194;21.006;2022-09-21T07:18:02;3.03;;;2.00;;
22223;SDS011;11281;52.194;21.006;2022-09-21T07:22:34;2.55;;;2.10;;
22223;SDS011;11281;52.194;21.006;2022-09-21T07:26:56;2.72;;;2.17;;
22223;SDS011;11281;52.194;21.006;2022-09-21T07:31:18;2.72;;;2.15;;
22223;SDS011;11281;52.194;21.006;2022-09-21T07:35:40;2.40;;;2.20;;
22223;SDS011;11281;52.194;21.006;2022-09-21T07:40:16;2.42;;;2.20;;
22223;SDS011;11281;52.194;21.006;2022-09-21T07:44:38;2.47;;;2.17;;
22223;SDS011;11281;52.194;21.006;2022-09-21T07:49:00;2.20;;;1.70;;
22223;SDS011;11281;52.194;21.006;2022-09-21T07:53:24;3.15;;;2.00;;
22223;SDS011;11281;52.194;21.006;2022-09-21T07:57:48;2.00;;;1.85;;
22223;SDS011;11281;52.194;21.006;2022-09-21T08:02:28;2.20;;;1.90;;
22223;SDS011;11281;52.194;21.006;2022-09-21T08:06:50;1.85;;;1.75;;
22223;SDS011;11281;52.194;21.006;2022-09-21T08:11:16;2.25;;;2.05;;
22223;SDS011;11281;52.194;21.006;2022-09-21T08:15:42;1.70;;;1.60;;
22223;SDS011;11281;52.194;21.006;2022-09-21T08:20:03;1.98;;;1.70;;
22223;SDS011;11281;52.194;21.006;2022-09-21T08:24:26;3.70;;;2.03;;
22223;SDS011;11281;52.194;21.006;2022-09-21T08:28:48;4.75;;;4.07;;
22223;SDS011;11281;52.194;21.006;2022-09-21T08:33:12;4.25;;;3.47;;
22223;SDS011;11281;52.194;21.006;2022-09-21T08:37:34;3.88;;;2.83;;
22223;SDS011;11281;52.194;21.006;2022-09-21T08:47:01;2.30;;;1.98;;
22223;SDS011;11281;52.194;21.006;2022-09-21T08:51:55;2.67;;;1.90;;
22223;SDS011;11281;52.194;21.006;2022-09-21T08:56:22;1.88;;;1.77;;
22223;SDS011;11281;52.194;21.006;2022-09-21T09:00:48;2.45;;;1.60;;
22223;SDS011;11281;52.194;21.006;2022-09-21T09:05:48;1.98;;;1.88;;
22223;SDS011;11281;52.194;21.006;2022-09-21T09:10:27;2.42;;;2.20;;
22223;SDS011;11281;52.194;21.006;2022-09-21T09:29:15;2.47;;;1.85;;
22223;SDS011;11281;52.194;21.006;2022-09-21T09:38:43;1.70;;;1.60;;
22223;SDS011;11281;52.194;21.006;2022-09-21T09:53:38;3.15;;;1.80;;
22223;SDS011;11281;52.194;21.006;2022-09-21T09:58:01;1.75;;;1.65;;
22223;SDS011;11281;52.194;21.006;2022-09-21T10:02:24;1.90;;;1.80;;
22223;SDS011;11281;52.194;21.006;2022-09-21T10:06:47;2.92;;;1.83;;
22223;SDS011;11281;52.194;21.006;2022-09-21T10:11:10;1.80;;;1.70;;
22223;SDS011;11281;52.194;21.006;2022-09-21T10:15:34;2.85;;;1.60;;
22223;SDS011;11281;52.194;21.006;2022-09-21T10:20:12;2.63;;;2.17;;
22223;SDS011;11281;52.194;21.006;2022-09-21T10:24:37;1.80;;;1.70;;
22223;SDS011;11281;52.194;21.006;2022-09-21T10:29:21;1.60;;;1.50;;
22223;SDS011;11281;52.194;21.006;2022-09-21T10:38:26;1.95;;;1.73;;
22223;SDS011;11281;52.194;21.006;2022-09-21T10:42:48;1.90;;;1.50;;
22223;SDS011;11281;52.194;21.006;2022-09-21T10:51:45;1.70;;;1.60;;
22223;SDS011;11281;52.194;21.006;2022-09-21T11:00:45;1.33;;;1.23;;
22223;SDS011;11281;52.194;21.006;2022-09-21T11:05:13;1.58;;;1.27;;
22223;SDS011;11281;52.194;21.006;2022-09-21T11:19:17;2.10;;;1.20;;
22223;SDS011;11281;52.194;21.006;2022-09-21T11:38:51;1.67;;;1.20;;
22223;SDS011;11281;52.194;21.006;2022-09-21T11:48:44;1.02;;;0.90;;
22223;SDS011;11281;52.194;21.006;2022-09-21T11:58:02;2.80;;;1.25;;
22223;SDS011;11281;52.194;21.006;2022-09-21T12:17:12;1.13;;;0.88;;
22223;SDS011;11281;52.194;21.006;2022-09-21T12:21:51;0.70;;;0.70;;
22223;SDS011;11281;52.194;21.006;2022-09-21T12:26:21;1.00;;;0.90;;
22223;SDS011;11281;52.194;21.006;2022-09-21T12:30:49;0.80;;;0.80;;
22223;SDS011;11281;52.194;21.006;2022-09-21T12:35:32;0.90;;;0.80;;
22223;SDS011;11281;52.194;21.006;2022-09-21T12:40:12;1.00;;;0.90;;
22223;SDS011;11281;52.194;21.006;2022-09-21T12:49:47;0.70;;;0.70;;
22223;SDS011;11281;52.194;21.006;2022-09-21T12:54:16;1.85;;;0.93;;
22223;SDS011;11281;52.194;21.006;2022-09-21T13:08:37;2.45;;;0.95;;
22223;SDS011;11281;52.194;21.006;2022-09-21T13:13:03;0.88;;;0.85;;
22223;SDS011;11281;52.194;21.006;2022-09-21T13:17:30;0.88;;;0.68;;
22223;SDS011;11281;52.194;21.006;2022-09-21T13:22:13;2.20;;;1.10;;
22223;SDS011;11281;52.194;21.006;2022-09-21T13:26:50;2.63;;;1.10;;
22223;SDS011;11281;52.194;21.006;2022-09-21T13:44:45;1.00;;;0.88;;
22223;SDS011;11281;52.194;21.006;2022-09-21T13:53:32;1.50;;;1.08;;
22223;SDS011;11281;52.194;21.006;2022-09-21T14:07:11;2.28;;;1.30;;
22223;SDS011;11281;52.194;21.006;2022-09-21T14:11:35;1.50;;;1.20;;
22223;SDS011;11281;52.194;21.006;2022-09-21T14:25:49;4.15;;;1.60;;
22223;SDS011;11281;52.194;21.006;2022-09-21T14:35:05;2.22;;;1.50;;
22223;SDS011;11281;52.194;21.006;2022-09-21T14:39:34;1.45;;;1.20;;
22223;SDS011;11281;52.194;21.006;2022-09-21T14:43:59;1.23;;;1.13;;
22223;SDS011;11281;52.194;21.006;2022-09-21T14:53:54;1.20;;;1.10;;
22223;SDS011;11281;52.194;21.006;2022-09-21T15:18:17;3.83;;;1.52;;
22223;SDS011;11281;52.194;21.006;2022-09-21T15:22:42;2.25;;;1.40;;
22223;SDS011;11281;52.194;21.006;2022-09-21T15:27:13;2.67;;;1.40;;
22223;SDS011;11281;52.194;21.006;2022-09-21T15:31:38;1.88;;;1.25;;
22223;SDS011;11281;52.194;21.006;2022-09-21T15:36:02;1.13;;;1.02;;
22223;SDS011;11281;52.194;21.006;2022-09-21T15:40:25;3.42;;;1.75;;
22223;SDS011;11281;52.194;21.006;2022-09-21T15:45:29;3.15;;;1.58;;
22223;SDS011;11281;52.194;21.006;2022-09-21T15:49:43;1.35;;;1.13;;
22223;SDS011;11281;52.194;21.006;2022-09-21T15:54:13;1.48;;;1.10;;
22223;SDS011;11281;52.194;21.006;2022-09-21T15:58:41;1.75;;;1.25;;
22223;SDS011;11281;52.194;21.006;2022-09-21T16:03:06;1.38;;;1.10;;
22223;SDS011;11281;52.194;21.006;2022-09-21T16:07:40;2.47;;;1.30;;
22223;SDS011;11281;52.194;21.006;2022-09-21T16:12:02;0.98;;;0.98;;
22223;SDS011;11281;52.194;21.006;2022-09-21T16:22:01;1.80;;;1.38;;
22223;SDS011;11281;52.194;21.006;2022-09-21T16:26:26;4.90;;;3.38;;
22223;SDS011;11281;52.194;21.006;2022-09-21T16:30:55;3.67;;;2.30;;
22223;SDS011;11281;52.194;21.006;2022-09-21T16:35:27;2.92;;;2.30;;
22223;SDS011;11281;52.194;21.006;2022-09-21T16:39:51;6.00;;;2.55;;
22223;SDS011;11281;52.194;21.006;2022-09-21T16:44:16;5.45;;;4.15;;
22223;SDS011;11281;52.194;21.006;2022-09-21T16:48:40;3.33;;;2.20;;
22223;SDS011;11281;52.194;21.006;2022-09-21T16:53:02;5.10;;;3.80;;
22223;SDS011;11281;52.194;21.006;2022-09-21T16:57:24;18.35;;;8.75;;
22223;SDS011;11281;52.194;21.006;2022-09-21T17:01:46;9.35;;;6.45;;
22223;SDS011;11281;52.194;21.006;2022-09-21T17:06:14;9.45;;;5.70;;
22223;SDS011;11281;52.194;21.006;2022-09-21T17:10:38;6.97;;;3.75;;
22223;SDS011;11281;52.194;21.006;2022-09-21T17:15:04;5.82;;;3.42;;
22223;SDS011;11281;52.194;21.006;2022-09-21T17:19:27;6.20;;;3.55;;
22223;SDS011;11281;52.194;21.006;2022-09-21T17:23:51;14.32;;;4.68;;
22223;SDS011;11281;52.194;21.006;2022-09-21T17:28:14;15.15;;;4.65;;
22223;SDS011;11281;52.194;21.006;2022-09-21T17:32:45;37.22;;;11.30;;
22223;SDS011;11281;52.194;21.006;2022-09-21T17:37:07;12.52;;;5.13;;
22223;SDS011;11281;52.194;21.006;2022-09-21T17:41:32;6.88;;;3.75;;
22223;SDS011;11281;52.194;21.006;2022-09-21T17:50:49;9.30;;;3.45;;
22223;SDS011;11281;52.194;21.006;2022-09-21T17:55:12;7.00;;;3.53;;
22223;SDS011;11281;52.194;21.006;2022-09-21T17:59:34;9.75;;;3.60;;
22223;SDS011;11281;52.194;21.006;2022-09-21T18:03:57;8.07;;;3.47;;
22223;SDS011;11281;52.194;21.006;2022-09-21T18:08:19;4.75;;;2.90;;
22223;SDS011;11281;52.194;21.006;2022-09-21T18:12:48;7.93;;;4.18;;
22223;SDS011;11281;52.194;21.006;2022-09-21T18:27:08;9.82;;;3.65;;
22223;SDS011;11281;52.194;21.006;2022-09-21T18:36:55;14.35;;;6.25;;
22223;SDS011;11281;52.194;21.006;2022-09-21T18:45:41;10.95;;;5.28;;
22223;SDS011;11281;52.194;21.006;2022-09-21T18:54:42;11.45;;;5.43;;
22223;SDS011;11281;52.194;21.006;2022-09-21T18:59:04;9.15;;;4.55;;
22223;SDS011;11281;52.194;21.006;2022-09-21T19:03:27;7.10;;;2.80;;
22223;SDS011;11281;52.194;21.006;2022-09-21T19:22:23;8.40;;;4.30;;
22223;SDS011;11281;52.194;21.006;2022-09-21T19:27:38;7.43;;;3.55;;
22223;SDS011;11281;52.194;21.006;2022-09-21T19:32:08;11.88;;;5.15;;
22223;SDS011;11281;52.194;21.006;2022-09-21T19:36:38;30.88;;;19.35;;
22223;SDS011;11281;52.194;21.006;2022-09-21T19:41:03;12.55;;;8.15;;
22223;SDS011;11281;52.194;21.006;2022-09-21T19:45:37;9.55;;;5.35;;
22223;SDS011;11281;52.194;21.006;2022-09-21T19:50:15;6.78;;;4.03;;
22223;SDS011;11281;52.194;21.006;2022-09-21T19:54:46;9.43;;;4.10;;
22223;SDS011;11281;52.194;21.006;2022-09-21T19:59:26;10.00;;;5.43;;
22223;SDS011;11281;52.194;21.006;2022-09-21T20:04:03;10.80;;;4.53;;
22223;SDS011;11281;52.194;21.006;2022-09-21T20:08:31;6.68;;;3.35;;
22223;SDS011;11281;52.194;21.006;2022-09-21T20:17:48;1.85;;;1.73;;
22223;SDS011;11281;52.194;21.006;2022-09-21T20:22:36;3.65;;;2.42;;
22223;SDS011;11281;52.194;21.006;2022-09-21T20:27:00;3.70;;;3.08;;
22223;SDS011;11281;52.194;21.006;2022-09-21T20:31:26;4.45;;;2.90;;
22223;SDS011;11281;52.194;21.006;2022-09-21T20:35:48;3.78;;;3.00;;
22223;SDS011;11281;52.194;21.006;2022-09-21T20:40:13;5.65;;;3.05;;
22223;SDS011;11281;52.194;21.006;2022-09-21T20:44:35;6.68;;;3.65;;
22223;SDS011;11281;52.194;21.006;2022-09-21T20:48:57;9.70;;;5.10;;
22223;SDS011;11281;52.194;21.006;2022-09-21T20:53:25;12.55;;;5.80;;
22223;SDS011;11281;52.194;21.006;2022-09-21T20:57:47;11.80;;;5.93;;
22223;SDS011;11281;52.194;21.006;2022-09-21T21:02:09;7.57;;;3.90;;
22223;SDS011;11281;52.194;21.006;2022-09-21T21:06:32;7.47;;;3.97;;
22223;SDS011;11281;52.194;21.006;2022-09-21T21:10:54;5.68;;;3.00;;
22223;SDS011;11281;52.194;21.006;2022-09-21T21:15:16;3.28;;;2.78;;
22223;SDS011;11281;52.194;21.006;2022-09-21T21:19:38;5.00;;;2.63;;
22223;SDS011;11281;52.194;21.006;2022-09-21T21:24:01;3.50;;;2.33;;
22223;SDS011;11281;52.194;21.006;2022-09-21T21:28:41;2.30;;;2.10;;
22223;SDS011;11281;52.194;21.006;2022-09-21T21:33:04;5.88;;;2.50;;
22223;SDS011;11281;52.194;21.006;2022-09-21T21:37:26;4.60;;;2.92;;
22223;SDS011;11281;52.194;21.006;2022-09-21T21:41:48;3.35;;;2.55;;
22223;SDS011;11281;52.194;21.006;2022-09-21T21:46:10;5.82;;;3.03;;
22223;SDS011;11281;52.194;21.006;2022-09-21T21:50:32;3.45;;;2.47;;
22223;SDS011;11281;52.194;21.006;2022-09-21T21:54:55;4.15;;;2.38;;
22223;SDS011;11281;52.194;21.006;2022-09-21T21:59:17;2.90;;;2.30;;
22223;SDS011;11281;52.194;21.006;2022-09-21T22:03:39;2.75;;;2.22;;
22223;SDS011;11281;52.194;21.006;2022-09-21T22:08:02;3.78;;;2.25;;
22223;SDS011;11281;52.194;21.006;2022-09-21T22:12:25;2.60;;;2.20;;
22223;SDS011;11281;52.194;21.006;2022-09-21T22:16:47;2.20;;;2.00;;
22223;SDS011;11281;52.194;21.006;2022-09-21T22:21:10;3.00;;;2.10;;
22223;SDS011;11281;52.194;21.006;2022-09-21T22:25:35;2.80;;;2.38;;
22223;SDS011;11281;52.194;21.006;2022-09-21T22:29:57;2.90;;;2.17;;
22223;SDS011;11281;52.194;21.006;2022-09-21T22:34:19;3.08;;;2.22;;
22223;SDS011;11281;52.194;21.006;2022-09-21T22:38:41;2.78;;;2.00;;
22223;SDS011;11281;52.194;21.006;2022-09-21T22:43:03;2.35;;;2.15;;
22223;SDS011;11281;52.194;21.006;2022-09-21T22:47:24;3.03;;;2.20;;
22223;SDS011;11281;52.194;21.006;2022-09-21T22:51:46;3.25;;;2.42;;
22223;SDS011;11281;52.194;21.006;2022-09-21T22:56:09;4.95;;;2.25;;
22223;SDS011;11281;52.194;21.006;2022-09-21T23:00:33;3.33;;;2.10;;
22223;SDS011;11281;52.194;21.006;2022-09-21T23:04:56;2.50;;;2.15;;
22223;SDS011;11281;52.194;21.006;2022-09-21T23:09:19;3.20;;;2.15;;
22223;SDS011;11281;52.194;21.006;2022-09-21T23:13:41;3.03;;;2.30;;
22223;SDS011;11281;52.194;21.006;2022-09-21T23:18:03;5.20;;;2.13;;
22223;SDS011;11281;52.194;21.006;2022-09-21T23:22:24;2.08;;;1.90;;
22223;SDS011;11281;52.194;21.006;2022-09-21T23:26:47;2.20;;;2.00;;
22223;SDS011;11281;52.194;21.006;2022-09-21T23:31:11;3.58;;;1.90;;
22223;SDS011;11281;52.194;21.006;2022-09-21T23:35:34;3.42;;;2.40;;
22223;SDS011;11281;52.194;21.006;2022-09-21T23:40:02;2.45;;;2.22;;
22223;SDS011;11281;52.194;21.006;2022-09-21T23:44:24;3.08;;;2.17;;
22223;SDS011;11281;52.194;21.006;2022-09-21T23:48:46;3.92;;;2.20;;
22223;SDS011;11281;52.194;21.006;2022-09-21T23:53:09;4.18;;;2.20;;
22223;SDS011;11281;52.194;21.006;2022-09-21T23:57:31;3.10;;;2.38;;
